createdAt,value
2023-03-06T00:00:18.471Z,3.91
2023-03-06T00:02:46.418Z,3.74
2023-03-06T00:05:14.749Z,4.50
2023-03-06T00:07:42.869Z,4.01
2023-03-06T00:10:14.195Z,3.72
2023-03-06T00:12:42.046Z,4.35
2023-03-06T00:15:12.616Z,4.92
2023-03-06T00:17:40.704Z,5.12
2023-03-06T00:20:10.940Z,5.32
2023-03-06T00:22:38.948Z,5.80
2023-03-06T00:25:08.463Z,6.28
2023-03-06T00:27:36.153Z,6.51
2023-03-06T00:30:03.922Z,6.80
2023-03-06T00:32:33.177Z,5.94
2023-03-06T00:35:02.164Z,6.12
2023-03-06T00:37:29.989Z,6.53
2023-03-06T00:39:57.671Z,6.78
2023-03-06T00:42:25.768Z,6.91
2023-03-06T00:44:53.645Z,6.99
2023-03-06T00:47:23.108Z,7.11
2023-03-06T00:49:52.252Z,7.27
2023-03-06T00:52:19.958Z,7.29
2023-03-06T00:54:47.682Z,7.17
2023-03-06T00:57:15.449Z,7.04
2023-03-06T00:59:43.194Z,6.86
2023-03-06T01:02:11.109Z,6.89
2023-03-06T01:04:38.875Z,6.83
2023-03-06T01:07:08.330Z,6.97
2023-03-06T01:09:36.018Z,6.76
2023-03-06T01:12:03.818Z,5.96
2023-03-06T01:14:32.357Z,6.34
2023-03-06T01:17:00.121Z,6.51
2023-03-06T01:19:27.947Z,6.52
2023-03-06T01:21:55.628Z,6.26
2023-03-06T01:24:25.804Z,6.60
2023-03-06T01:26:57.599Z,6.55
2023-03-06T01:29:26.320Z,6.57
2023-03-06T01:31:54.159Z,6.77
2023-03-06T01:34:21.942Z,6.89
2023-03-06T01:36:49.699Z,6.24
2023-03-06T01:39:17.494Z,6.33
2023-03-06T01:41:46.631Z,5.40
2023-03-06T01:44:14.412Z,5.20
2023-03-06T01:46:42.962Z,3.87
2023-03-06T01:49:17.234Z,3.33
2023-03-06T01:51:50.842Z,3.27
2023-03-06T01:54:23.660Z,3.51
2023-03-06T01:56:57.109Z,4.05
2023-03-06T01:59:26.901Z,3.68
2023-03-06T02:01:55.810Z,3.64
2023-03-06T02:04:24.826Z,3.54
2023-03-06T02:06:52.953Z,3.50
2023-03-06T02:09:20.837Z,3.62
2023-03-06T02:11:49.361Z,4.25
2023-03-06T02:14:19.042Z,4.20
2023-03-06T02:16:46.890Z,4.86
2023-03-06T02:19:27.238Z,4.57
2023-03-06T02:21:55.018Z,4.17
2023-03-06T02:24:33.064Z,4.70
2023-03-06T02:27:05.393Z,4.83
2023-03-06T02:29:33.630Z,4.43
2023-03-06T02:32:04.029Z,3.97
2023-03-06T02:34:56.731Z,4.21
2023-03-06T02:37:27.871Z,4.47
2023-03-06T02:40:08.122Z,4.28
2023-03-06T02:42:37.467Z,4.68
2023-03-06T02:45:10.784Z,3.90
2023-03-06T02:47:38.592Z,3.91
2023-03-06T02:50:06.776Z,3.99
2023-03-06T02:52:34.589Z,4.66
2023-03-06T02:55:03.502Z,3.99
2023-03-06T02:57:31.220Z,3.74
2023-03-06T03:00:01.081Z,3.75
2023-03-06T03:02:28.942Z,4.21
2023-03-06T03:04:56.722Z,4.01
2023-03-06T03:07:24.538Z,4.68
2023-03-06T03:09:52.436Z,3.42
2023-03-06T03:12:22.353Z,3.39
2023-03-06T03:14:50.415Z,3.29
2023-03-06T03:17:19.526Z,4.42
2023-03-06T03:19:47.346Z,5.08
2023-03-06T03:22:15.258Z,5.29
2023-03-06T03:24:43.134Z,5.16
2023-03-06T03:27:11.703Z,5.48
2023-03-06T03:29:41.242Z,5.33
2023-03-06T03:32:09.633Z,5.58
2023-03-06T03:34:39.214Z,4.49
2023-03-06T03:37:07.178Z,4.93
2023-03-06T03:39:34.929Z,4.51
2023-03-06T03:42:04.426Z,4.98
2023-03-06T03:44:32.631Z,4.14
2023-03-06T03:47:01.601Z,3.31
2023-03-06T03:49:29.728Z,3.04
2023-03-06T03:51:58.845Z,2.89
2023-03-06T03:54:29.924Z,2.92
2023-03-06T03:56:58.156Z,3.11
2023-03-06T03:59:30.974Z,3.35
2023-03-06T04:02:27.835Z,3.62
2023-03-06T04:05:05.080Z,3.19
2023-03-06T04:07:34.545Z,2.99
2023-03-06T04:10:02.310Z,3.64
2023-03-06T04:12:31.282Z,3.69
2023-03-06T04:14:59.881Z,3.45
2023-03-06T04:17:28.505Z,3.27
2023-03-06T04:19:57.288Z,3.76
2023-03-06T04:22:25.229Z,3.57
2023-03-06T04:24:55.048Z,3.73
2023-03-06T04:27:23.211Z,4.07
2023-03-06T04:29:51.411Z,4.15
2023-03-06T04:32:21.339Z,4.02
2023-03-06T04:34:49.334Z,4.12
2023-03-06T04:37:25.126Z,4.41
2023-03-06T04:39:55.700Z,4.24
2023-03-06T04:42:23.468Z,4.58
2023-03-06T04:44:51.180Z,4.07
2023-03-06T04:47:20.288Z,4.20
2023-03-06T04:49:48.026Z,4.20
2023-03-06T04:52:15.958Z,4.27
2023-03-06T04:54:43.871Z,3.70
2023-03-06T04:57:14.107Z,3.43
2023-03-06T04:59:41.816Z,3.25
2023-03-06T05:02:09.770Z,3.46
2023-03-06T05:04:37.768Z,2.88
2023-03-06T05:07:05.608Z,3.26
2023-03-06T05:09:35.377Z,3.61
2023-03-06T05:12:04.633Z,3.72
2023-03-06T05:14:33.667Z,4.35
2023-03-06T05:17:01.837Z,4.99
2023-03-06T05:19:29.556Z,4.07
2023-03-06T05:21:57.468Z,3.60
2023-03-06T05:24:25.196Z,4.15
2023-03-06T05:26:52.949Z,3.85
2023-03-06T05:29:21.014Z,4.17
2023-03-06T05:31:50.234Z,4.12
2023-03-06T05:34:18.618Z,4.09
2023-03-06T05:36:47.295Z,3.80
2023-03-06T05:39:15.175Z,4.24
2023-03-06T05:41:42.919Z,3.46
2023-03-06T05:44:10.674Z,3.10
2023-03-06T05:46:38.757Z,2.87
2023-03-06T05:49:08.135Z,3.32
2023-03-06T05:51:35.862Z,3.05
2023-03-06T05:54:03.741Z,3.58
2023-03-06T05:56:31.447Z,2.94
2023-03-06T05:58:59.326Z,3.12
2023-03-06T06:01:28.446Z,3.79
2023-03-06T06:03:56.135Z,4.20
2023-03-06T06:06:25.168Z,3.96
2023-03-06T06:08:52.936Z,4.47
2023-03-06T06:11:21.029Z,4.57
2023-03-06T06:13:49.397Z,3.95
2023-03-06T06:16:19.101Z,3.83
2023-03-06T06:18:47.292Z,3.90
2023-03-06T06:21:15.795Z,3.15
2023-03-06T06:23:44.919Z,3.36
2023-03-06T06:26:12.759Z,3.72
2023-03-06T06:28:40.499Z,2.84
2023-03-06T06:31:10.563Z,3.01
2023-03-06T06:33:38.462Z,3.21
2023-03-06T06:36:06.629Z,2.77
2023-03-06T06:38:34.654Z,2.53
2023-03-06T06:41:33.454Z,3.20
2023-03-06T06:43:54.267Z,3.35
2023-03-06T06:47:02.652Z,2.81
2023-03-06T06:49:09.762Z,2.45
2023-03-06T06:51:37.610Z,2.32
2023-03-06T06:54:05.346Z,2.16
2023-03-06T06:56:34.663Z,2.31
2023-03-06T06:59:15.761Z,2.38
2023-03-06T07:01:44.936Z,2.16
2023-03-06T07:04:13.647Z,2.38
2023-03-06T07:06:41.720Z,2.60
2023-03-06T07:09:09.791Z,2.32
2023-03-06T07:11:40.185Z,2.12
2023-03-06T07:14:08.203Z,2.16
2023-03-06T07:16:36.069Z,2.46
2023-03-06T07:19:04.236Z,2.39
2023-03-06T07:21:32.117Z,2.41
2023-03-06T07:24:00.041Z,2.75
2023-03-06T07:26:28.966Z,2.60
2023-03-06T07:28:58.122Z,2.83
2023-03-06T07:31:28.888Z,2.89
2023-03-06T07:33:57.011Z,2.81
2023-03-06T07:36:25.211Z,2.60
2023-03-06T07:38:52.987Z,2.67
2023-03-06T07:41:22.650Z,2.67
2023-03-06T07:43:51.088Z,2.63
2023-03-06T07:46:20.381Z,2.96
2023-03-06T07:48:48.409Z,3.06
2023-03-06T07:51:17.488Z,3.49
2023-03-06T07:53:45.266Z,3.01
2023-03-06T07:56:13.684Z,3.68
2023-03-06T07:58:43.764Z,3.15
2023-03-06T08:01:13.439Z,2.85
2023-03-06T08:03:43.263Z,3.45
2023-03-06T08:06:13.257Z,3.50
2023-03-06T08:08:42.941Z,3.38
2023-03-06T08:11:12.044Z,3.00
2023-03-06T08:13:40.789Z,2.95
2023-03-06T08:16:10.260Z,3.13
2023-03-06T08:18:39.582Z,3.24
2023-03-06T08:21:10.639Z,3.08
2023-03-06T08:23:39.451Z,2.96
2023-03-06T08:26:09.278Z,3.24
2023-03-06T08:28:37.064Z,3.07
2023-03-06T08:31:10.608Z,2.88
2023-03-06T08:33:39.189Z,2.83
2023-03-06T08:36:08.833Z,2.97
2023-03-06T08:38:36.603Z,3.01
2023-03-06T08:41:04.728Z,3.28
2023-03-06T08:43:32.544Z,3.05
2023-03-06T08:46:00.560Z,2.98
2023-03-06T08:48:28.875Z,3.24
2023-03-06T08:50:56.915Z,2.85
2023-03-06T08:53:41.628Z,3.03
2023-03-06T08:56:16.149Z,2.94
2023-03-06T08:58:43.941Z,2.74
2023-03-06T09:01:15.765Z,3.00
2023-03-06T09:03:43.751Z,3.05
2023-03-06T09:06:11.497Z,3.23
2023-03-06T09:08:44.486Z,2.93
2023-03-06T09:11:12.720Z,2.87
2023-03-06T09:13:41.036Z,3.32
2023-03-06T09:16:09.452Z,2.89
2023-03-06T09:18:37.308Z,2.94
2023-03-06T09:21:05.678Z,3.06
2023-03-06T09:23:33.762Z,3.52
2023-03-06T09:26:03.372Z,3.03
2023-03-06T09:28:31.147Z,2.92
2023-03-06T09:30:59.195Z,3.17
2023-03-06T09:33:28.667Z,3.18
2023-03-06T09:35:58.537Z,3.18
2023-03-06T09:38:28.503Z,3.37
2023-03-06T09:41:05.833Z,3.30
2023-03-06T09:43:37.996Z,3.47
2023-03-06T09:46:20.339Z,3.43
2023-03-06T09:49:02.051Z,3.15
2023-03-06T09:51:37.698Z,3.24
2023-03-06T09:54:12.118Z,3.03
2023-03-06T09:56:45.046Z,3.13
2023-03-06T09:59:17.270Z,3.49
2023-03-06T10:01:50.812Z,3.31
2023-03-06T10:04:37.689Z,2.89
2023-03-06T10:07:14.122Z,3.67
2023-03-06T10:09:47.347Z,3.19
2023-03-06T10:12:25.638Z,3.33
2023-03-06T10:15:03.811Z,3.36
2023-03-06T10:17:36.507Z,3.32
2023-03-06T10:20:16.338Z,3.93
2023-03-06T10:22:59.998Z,3.56
2023-03-06T10:25:32.416Z,3.49
2023-03-06T10:28:13.852Z,3.83
2023-03-06T10:30:46.998Z,3.92
2023-03-06T10:33:24.448Z,3.75
2023-03-06T10:35:54.128Z,4.07
2023-03-06T10:38:24.557Z,4.57
2023-03-06T10:41:06.432Z,4.14
2023-03-06T10:43:37.138Z,4.19
2023-03-06T10:46:06.097Z,4.25
2023-03-06T10:48:37.066Z,4.18
2023-03-06T10:51:19.006Z,4.02
2023-03-06T10:53:52.587Z,4.52
2023-03-06T10:56:32.886Z,4.42
2023-03-06T10:59:14.059Z,4.35
2023-03-06T11:01:42.906Z,4.22
2023-03-06T11:04:23.867Z,3.99
2023-03-06T11:07:07.252Z,3.94
2023-03-06T11:09:36.014Z,4.32
2023-03-06T11:12:21.814Z,3.93
2023-03-06T11:15:09.352Z,4.27
2023-03-06T11:17:39.243Z,4.11
2023-03-06T11:20:21.401Z,4.33
2023-03-06T11:22:52.926Z,4.88
2023-03-06T11:25:22.976Z,4.71
2023-03-06T11:27:58.738Z,4.15
2023-03-06T11:30:35.852Z,4.33
2023-03-06T11:33:09.790Z,4.53
2023-03-06T11:35:50.054Z,4.66
2023-03-06T11:38:23.606Z,4.52
2023-03-06T11:40:54.991Z,4.41
2023-03-06T11:43:26.366Z,4.56
2023-03-06T11:46:01.320Z,4.99
2023-03-06T11:48:35.342Z,4.35
2023-03-06T11:51:12.565Z,4.91
2023-03-06T11:53:41.731Z,4.79
2023-03-06T11:56:30.533Z,5.19
2023-03-06T11:59:17.402Z,5.01
2023-03-06T12:01:55.546Z,5.12
2023-03-06T12:04:42.352Z,5.35
2023-03-06T12:07:21.906Z,5.72
2023-03-06T12:09:56.739Z,5.67
2023-03-06T12:12:55.481Z,4.92
2023-03-06T12:15:38.414Z,4.80
2023-03-06T12:18:27.813Z,4.55
2023-03-06T12:21:04.154Z,5.06
2023-03-06T12:23:49.181Z,5.46
2023-03-06T12:26:35.111Z,4.93
2023-03-06T12:29:23.874Z,4.96
2023-03-06T12:32:03.949Z,5.21
2023-03-06T12:34:47.835Z,4.74
2023-03-06T12:37:25.704Z,4.60
2023-03-06T12:40:24.512Z,4.38
2023-03-06T12:43:20.722Z,4.76
2023-03-06T12:45:49.683Z,4.82
2023-03-06T12:48:23.553Z,4.54
2023-03-06T12:50:53.369Z,4.77
2023-03-06T12:53:27.432Z,4.87
2023-03-06T12:55:57.221Z,4.65
2023-03-06T12:58:50.984Z,4.90
2023-03-06T13:01:40.193Z,5.03
2023-03-06T13:04:29.074Z,4.80
2023-03-06T13:07:27.864Z,4.92
2023-03-06T13:10:08.394Z,5.00
2023-03-06T13:12:54.233Z,5.08
2023-03-06T13:15:34.757Z,5.12
2023-03-06T13:18:03.568Z,5.35
2023-03-06T13:20:36.194Z,4.99
2023-03-06T13:23:44.581Z,5.22
2023-03-06T13:26:52.116Z,4.75
2023-03-06T13:30:02.577Z,4.94
2023-03-06T13:32:35.372Z,5.53
2023-03-06T13:35:03.431Z,5.39
2023-03-06T13:37:39.117Z,4.88
2023-03-06T13:40:34.121Z,5.25
2023-03-06T13:43:22.859Z,5.30
2023-03-06T13:45:51.502Z,5.32
2023-03-06T13:48:47.337Z,5.38
2023-03-06T13:51:23.886Z,5.10
2023-03-06T13:54:17.923Z,4.90
2023-03-06T13:57:25.930Z,5.25
2023-03-06T14:00:27.086Z,5.00
2023-03-06T14:03:11.457Z,5.01
2023-03-06T14:05:44.244Z,5.14
2023-03-06T14:08:16.218Z,4.88
2023-03-06T14:10:46.018Z,5.30
2023-03-06T14:13:19.728Z,5.07
2023-03-06T14:15:50.730Z,5.02
2023-03-06T14:18:23.868Z,5.27
2023-03-06T14:20:56.424Z,4.83
2023-03-06T14:23:27.616Z,5.01
2023-03-06T14:25:59.906Z,5.25
2023-03-06T14:28:29.413Z,5.12
2023-03-06T14:31:01.374Z,5.02
2023-03-06T14:33:33.422Z,5.46
2023-03-06T14:36:04.435Z,5.13
2023-03-06T14:38:36.268Z,4.91
2023-03-06T14:41:05.850Z,4.97
2023-03-06T14:43:33.555Z,4.68
2023-03-06T14:46:05.057Z,4.70
2023-03-06T14:48:42.282Z,4.86
2023-03-06T14:51:16.824Z,4.79
2023-03-06T14:53:45.826Z,4.94
2023-03-06T14:56:17.846Z,5.01
2023-03-06T14:58:53.188Z,4.99
2023-03-06T15:01:30.239Z,4.93
2023-03-06T15:04:00.481Z,5.05
2023-03-06T15:06:33.162Z,5.10
2023-03-06T15:09:07.206Z,5.02
2023-03-06T15:11:54.819Z,4.84
2023-03-06T15:14:29.343Z,4.82
2023-03-06T15:17:15.349Z,4.75
2023-03-06T15:19:43.213Z,4.61
2023-03-06T15:22:28.089Z,4.53
2023-03-06T15:25:15.224Z,4.86
2023-03-06T15:27:50.056Z,4.41
2023-03-06T15:30:29.549Z,4.33
2023-03-06T15:33:25.150Z,4.43
2023-03-06T15:35:54.990Z,4.57
2023-03-06T15:38:26.927Z,3.66
2023-03-06T15:40:56.866Z,3.96
2023-03-06T15:43:24.811Z,4.36
2023-03-06T15:45:57.792Z,4.38
2023-03-06T15:48:27.203Z,4.42
2023-03-06T15:50:55.270Z,4.51
2023-03-06T15:53:22.979Z,4.55
2023-03-06T15:55:51.425Z,4.41
2023-03-06T15:58:23.514Z,4.21
2023-03-06T16:00:51.714Z,4.00
2023-03-06T16:03:19.784Z,4.28
2023-03-06T16:05:49.072Z,4.25
2023-03-06T16:08:16.821Z,3.92
2023-03-06T16:10:46.788Z,3.88
2023-03-06T16:13:20.331Z,3.98
2023-03-06T16:15:51.000Z,4.18
2023-03-06T16:18:19.027Z,4.04
2023-03-06T16:20:47.388Z,4.00
2023-03-06T16:23:16.628Z,3.88
2023-03-06T16:25:48.719Z,3.97
2023-03-06T16:28:17.141Z,4.16
2023-03-06T16:30:45.736Z,4.27
2023-03-06T16:33:14.393Z,4.28
2023-03-06T16:35:44.484Z,4.05
2023-03-06T16:38:12.510Z,3.83
2023-03-06T16:40:42.543Z,3.93
2023-03-06T16:43:13.338Z,3.92
2023-03-06T16:45:42.590Z,3.83
2023-03-06T16:48:15.280Z,3.97
2023-03-06T16:50:43.135Z,4.01
2023-03-06T16:53:10.888Z,4.17
2023-03-06T16:55:38.794Z,3.89
2023-03-06T16:58:08.631Z,3.89
2023-03-06T17:00:36.451Z,4.21
2023-03-06T17:03:04.356Z,4.30
2023-03-06T17:05:34.117Z,4.04
2023-03-06T17:08:02.148Z,3.97
2023-03-06T17:10:30.039Z,3.95
2023-03-06T17:12:58.127Z,4.00
2023-03-06T17:15:27.248Z,3.78
2023-03-06T17:17:57.125Z,3.85
2023-03-06T17:20:24.914Z,3.84
2023-03-06T17:22:52.750Z,3.91
2023-03-06T17:25:20.814Z,4.00
2023-03-06T17:27:48.632Z,3.86
2023-03-06T17:30:16.840Z,3.93
2023-03-06T17:32:46.024Z,3.85
2023-03-06T17:35:13.801Z,4.02
2023-03-06T17:37:41.675Z,3.80
2023-03-06T17:40:11.190Z,3.83
2023-03-06T17:42:38.939Z,4.03
2023-03-06T17:45:09.321Z,3.66
2023-03-06T17:47:37.302Z,3.70
2023-03-06T17:50:06.987Z,3.83
2023-03-06T17:52:34.901Z,3.93
2023-03-06T17:55:02.654Z,3.77
2023-03-06T17:57:30.507Z,3.84
2023-03-06T17:59:58.337Z,3.75
2023-03-06T18:02:26.228Z,3.81
2023-03-06T18:04:56.843Z,3.59
2023-03-06T18:07:26.528Z,3.68
2023-03-06T18:09:54.384Z,3.66
2023-03-06T18:12:22.168Z,3.63
2023-03-06T18:14:50.651Z,3.39
2023-03-06T18:17:18.368Z,3.54
2023-03-06T18:19:46.123Z,3.61
2023-03-06T18:22:13.926Z,3.80
2023-03-06T18:24:42.994Z,3.63
2023-03-06T18:27:13.441Z,3.64
2023-03-06T18:29:41.562Z,3.62
2023-03-06T18:32:10.668Z,3.51
2023-03-06T18:34:38.536Z,3.50
2023-03-06T18:37:06.694Z,3.74
2023-03-06T18:39:34.523Z,3.62
2023-03-06T18:42:03.553Z,3.70
2023-03-06T18:44:31.347Z,3.55
2023-03-06T18:46:59.240Z,3.61
2023-03-06T18:49:27.113Z,3.61
2023-03-06T18:51:57.311Z,3.49
2023-03-06T18:54:28.375Z,3.76
2023-03-06T18:56:56.194Z,3.51
2023-03-06T18:59:25.875Z,3.66
2023-03-06T19:01:57.579Z,3.48
2023-03-06T19:04:25.889Z,3.28
2023-03-06T19:06:54.666Z,3.51
2023-03-06T19:09:22.908Z,3.42
2023-03-06T19:11:52.125Z,3.42
2023-03-06T19:14:21.399Z,3.37
2023-03-06T19:16:50.744Z,3.32
2023-03-06T19:19:18.542Z,3.46
2023-03-06T19:21:46.305Z,3.70
2023-03-06T19:24:14.377Z,3.60
2023-03-06T19:26:42.256Z,3.60
2023-03-06T19:29:09.946Z,3.63
2023-03-06T19:31:37.833Z,3.48
2023-03-06T19:34:07.138Z,3.51
2023-03-06T19:36:35.027Z,3.44
2023-03-06T19:39:05.390Z,3.40
2023-03-06T19:41:34.109Z,3.41
2023-03-06T19:44:06.595Z,3.33
2023-03-06T19:46:36.077Z,3.37
2023-03-06T19:49:11.616Z,3.40
2023-03-06T19:51:40.888Z,3.16
2023-03-06T19:54:08.735Z,3.15
2023-03-06T19:56:36.735Z,3.17
2023-03-06T19:59:04.799Z,3.08
2023-03-06T20:01:34.110Z,3.12
2023-03-06T20:04:03.248Z,3.11
2023-03-06T20:06:33.582Z,3.34
2023-03-06T20:09:04.651Z,3.24
2023-03-06T20:11:32.467Z,3.44
2023-03-06T20:14:02.153Z,3.64
2023-03-06T20:16:30.880Z,3.55
2023-03-06T20:19:00.410Z,3.62
2023-03-06T20:21:29.764Z,3.53
2023-03-06T20:23:58.775Z,3.47
2023-03-06T20:26:29.821Z,3.37
2023-03-06T20:28:59.199Z,3.48
2023-03-06T20:31:29.284Z,3.33
2023-03-06T20:33:59.578Z,3.19
2023-03-06T20:36:29.392Z,3.40
2023-03-06T20:39:00.243Z,3.12
2023-03-06T20:41:31.216Z,3.12
2023-03-06T20:43:59.266Z,3.16
2023-03-06T20:46:27.164Z,3.25
2023-03-06T20:48:55.912Z,3.44
2023-03-06T20:51:25.518Z,3.43
2023-03-06T20:53:54.084Z,3.34
2023-03-06T20:56:24.693Z,3.53
2023-03-06T20:58:54.706Z,3.65
2023-03-06T21:01:24.171Z,4.25
2023-03-06T21:03:53.094Z,4.84
2023-03-06T21:06:21.624Z,4.95
2023-03-06T21:08:49.594Z,4.41
2023-03-06T21:11:17.722Z,4.72
2023-03-06T21:13:45.536Z,4.90
2023-03-06T21:16:18.414Z,5.46
2023-03-06T21:18:47.286Z,4.91
2023-03-06T21:21:18.403Z,4.79
2023-03-06T21:23:46.688Z,4.98
2023-03-06T21:26:15.883Z,5.01
2023-03-06T21:28:44.541Z,4.63
2023-03-06T21:31:15.386Z,3.79
2023-03-06T21:33:43.887Z,3.58
2023-03-06T21:36:12.064Z,3.94
2023-03-06T21:38:40.159Z,4.37
2023-03-06T21:41:09.684Z,4.51
2023-03-06T21:43:37.578Z,4.78
2023-03-06T21:46:05.616Z,4.40
2023-03-06T21:48:35.083Z,4.27
2023-03-06T21:51:08.164Z,4.26
2023-03-06T21:53:36.987Z,4.30
2023-03-06T21:56:05.751Z,4.17
2023-03-06T21:58:34.095Z,4.33
2023-03-06T22:01:02.006Z,4.55
2023-03-06T22:03:29.731Z,4.40
2023-03-06T22:06:08.415Z,3.91
2023-03-06T22:08:36.114Z,4.17
2023-03-06T22:11:07.747Z,4.16
2023-03-06T22:13:35.608Z,4.49
2023-03-06T22:16:03.815Z,4.53
2023-03-06T22:18:32.046Z,4.81
2023-03-06T22:21:01.328Z,4.36
2023-03-06T22:23:28.991Z,3.92
2023-03-06T22:25:56.867Z,3.80
2023-03-06T22:28:24.696Z,3.66
2023-03-06T22:30:52.406Z,3.67
2023-03-06T22:33:20.158Z,3.88
2023-03-06T22:35:48.045Z,3.65
2023-03-06T22:38:19.025Z,4.12
2023-03-06T22:40:46.753Z,4.23
2023-03-06T22:43:14.905Z,4.08
2023-03-06T22:45:42.599Z,4.63
2023-03-06T22:48:11.393Z,4.24
2023-03-06T22:50:39.175Z,4.40
2023-03-06T22:53:06.922Z,3.69
2023-03-06T22:55:36.986Z,3.47
2023-03-06T22:58:04.743Z,3.66
2023-03-06T23:00:32.407Z,3.53
2023-03-06T23:03:01.170Z,4.19
2023-03-06T23:05:29.681Z,4.62
2023-03-06T23:07:57.570Z,4.52
2023-03-06T23:10:25.577Z,4.62
2023-03-06T23:13:13.307Z,4.69
2023-03-06T23:16:03.160Z,4.86
2023-03-06T23:18:51.465Z,3.99
2023-03-06T23:21:37.965Z,4.52
2023-03-06T23:24:25.299Z,4.50
2023-03-06T23:26:53.082Z,4.45
2023-03-06T23:29:22.363Z,4.00
2023-03-06T23:31:50.329Z,4.33
2023-03-06T23:34:19.868Z,4.32
2023-03-06T23:36:47.628Z,4.15
2023-03-06T23:39:16.061Z,4.49
2023-03-06T23:41:43.909Z,4.63
2023-03-06T23:44:11.903Z,4.35
2023-03-06T23:46:41.201Z,4.11
2023-03-06T23:49:08.988Z,4.48
2023-03-06T23:51:36.641Z,4.66
2023-03-06T23:54:04.748Z,4.79
2023-03-06T23:56:32.581Z,4.74
2023-03-06T23:59:00.495Z,4.42
